createdAt,value
2024-02-19T00:01:34.745Z,62.00
2024-02-19T00:04:11.661Z,61.80
2024-02-19T00:06:47.857Z,61.80
2024-02-19T00:09:23.807Z,61.70
2024-02-19T00:12:00.471Z,61.10
2024-02-19T00:14:36.408Z,60.70
2024-02-19T00:17:12.332Z,59.90
2024-02-19T00:19:48.259Z,59.10
2024-02-19T00:22:24.320Z,58.50
2024-02-19T00:25:00.437Z,58.80
2024-02-19T00:27:36.391Z,58.70
2024-02-19T00:30:12.914Z,58.40
2024-02-19T00:32:49.505Z,58.70
2024-02-19T00:35:26.716Z,59.20
2024-02-19T00:38:02.814Z,59.00
2024-02-19T00:40:39.313Z,59.30
2024-02-19T00:43:15.906Z,59.20
2024-02-19T00:45:52.835Z,59.70
2024-02-19T00:48:28.803Z,59.40
2024-02-19T00:51:05.472Z,60.10
2024-02-19T00:53:41.413Z,59.70
2024-02-19T00:56:17.436Z,59.70
2024-02-19T00:58:53.301Z,60.00
2024-02-19T01:01:29.310Z,59.60
2024-02-19T01:04:07.037Z,59.80
2024-02-19T01:06:42.993Z,59.70
2024-02-19T01:09:18.946Z,59.90
2024-02-19T01:11:54.872Z,60.00
2024-02-19T01:14:30.768Z,59.90
2024-02-19T01:17:07.624Z,59.60
2024-02-19T01:19:45.485Z,59.10
2024-02-19T01:22:21.542Z,59.20
2024-02-19T01:24:57.751Z,59.60
2024-02-19T01:27:33.634Z,58.90
2024-02-19T01:30:10.172Z,59.00
2024-02-19T01:32:46.087Z,58.50
2024-02-19T01:35:23.416Z,58.30
2024-02-19T01:37:59.296Z,58.30
2024-02-19T01:40:35.180Z,58.40
2024-02-19T01:43:11.487Z,59.10
2024-02-19T01:45:47.506Z,59.40
2024-02-19T01:48:23.462Z,59.00
2024-02-19T01:51:01.491Z,59.20
2024-02-19T01:53:38.079Z,59.00
2024-02-19T01:56:14.055Z,58.60
2024-02-19T01:58:50.706Z,59.00
2024-02-19T02:01:28.040Z,58.70
2024-02-19T02:04:06.753Z,59.20
2024-02-19T02:06:42.663Z,58.70
2024-02-19T02:09:19.131Z,59.10
2024-02-19T02:11:55.048Z,59.60
2024-02-19T02:14:31.020Z,59.80
2024-02-19T02:17:09.190Z,59.30
2024-02-19T02:19:45.380Z,61.00
2024-02-19T02:22:21.348Z,63.10
2024-02-19T02:24:57.474Z,65.10
2024-02-19T02:27:33.368Z,67.30
2024-02-19T02:30:09.848Z,68.70
2024-02-19T02:32:45.835Z,71.50
2024-02-19T02:35:23.068Z,71.70
2024-02-19T02:38:00.642Z,73.40
2024-02-19T02:40:39.479Z,73.40
2024-02-19T02:43:15.528Z,72.20
2024-02-19T02:45:53.488Z,73.80
2024-02-19T02:48:29.885Z,74.20
2024-02-19T02:51:05.955Z,74.20
2024-02-19T02:53:41.975Z,74.40
2024-02-19T02:56:22.244Z,73.60
2024-02-19T02:58:58.187Z,72.90
2024-02-19T03:01:34.280Z,74.90
2024-02-19T03:04:10.431Z,76.20
2024-02-19T03:06:46.677Z,76.50
2024-02-19T03:09:22.620Z,77.00
2024-02-19T03:11:58.531Z,78.00
2024-02-19T03:14:35.400Z,78.10
2024-02-19T03:17:11.604Z,78.50
2024-02-19T03:19:47.822Z,78.20
2024-02-19T03:22:24.941Z,78.50
2024-02-19T03:25:01.271Z,78.40
2024-02-19T03:27:37.390Z,78.40
2024-02-19T03:30:14.138Z,77.90
2024-02-19T03:32:50.144Z,78.10
2024-02-19T03:35:26.106Z,77.90
2024-02-19T03:38:02.269Z,77.50
2024-02-19T03:40:38.213Z,76.90
2024-02-19T03:43:14.652Z,76.80
2024-02-19T03:45:51.732Z,77.20
2024-02-19T03:48:28.310Z,76.50
2024-02-19T03:51:04.312Z,76.50
2024-02-19T03:53:40.225Z,75.00
2024-02-19T03:56:16.473Z,74.80
2024-02-19T03:58:52.752Z,73.50
2024-02-19T04:01:28.833Z,72.90
2024-02-19T04:04:05.059Z,72.00
2024-02-19T04:06:41.136Z,72.20
2024-02-19T04:09:17.148Z,72.10
2024-02-19T04:11:53.112Z,72.80
2024-02-19T04:14:29.089Z,73.50
2024-02-19T04:17:06.938Z,74.60
2024-02-19T04:19:43.144Z,75.70
2024-02-19T04:22:19.140Z,75.40
2024-02-19T04:24:55.197Z,75.30
2024-02-19T04:27:31.162Z,75.70
2024-02-19T04:30:07.901Z,75.80
2024-02-19T04:32:43.952Z,75.70
2024-02-19T04:35:20.105Z,75.60
2024-02-19T04:37:56.149Z,75.50
2024-02-19T04:40:32.334Z,74.70
2024-02-19T04:43:08.407Z,72.80
2024-02-19T04:45:46.091Z,72.10
2024-02-19T04:48:22.068Z,71.40
2024-02-19T04:50:58.009Z,70.50
2024-02-19T04:53:33.990Z,70.30
2024-02-19T04:56:10.118Z,69.40
2024-02-19T04:58:46.102Z,68.20
2024-02-19T05:01:22.218Z,67.90
2024-02-19T05:04:01.475Z,67.20
2024-02-19T05:06:37.767Z,66.00
2024-02-19T05:09:14.384Z,65.50
2024-02-19T05:11:50.707Z,64.50
2024-02-19T05:14:27.160Z,64.90
2024-02-19T05:17:04.544Z,63.80
2024-02-19T05:19:40.565Z,63.40
2024-02-19T05:22:16.639Z,62.80
2024-02-19T05:24:52.961Z,62.70
2024-02-19T05:27:29.047Z,62.80
2024-02-19T05:30:06.047Z,61.90
2024-02-19T05:32:42.036Z,61.50
2024-02-19T05:35:18.099Z,59.60
2024-02-19T05:37:54.310Z,59.30
2024-02-19T05:40:30.300Z,59.10
2024-02-19T05:43:06.908Z,58.60
2024-02-19T05:45:43.006Z,58.30
2024-02-19T05:48:19.100Z,57.90
2024-02-19T05:50:55.083Z,57.20
2024-02-19T05:53:31.635Z,57.20
2024-02-19T05:56:10.314Z,56.00
2024-02-19T05:58:47.315Z,56.40
2024-02-19T06:01:23.397Z,57.00
2024-02-19T06:03:59.738Z,56.60
2024-02-19T06:06:35.722Z,56.70
2024-02-19T06:09:11.765Z,56.50
2024-02-19T06:11:47.778Z,55.80
2024-02-19T06:14:23.798Z,55.60
2024-02-19T06:16:59.740Z,56.10
2024-02-19T06:19:36.803Z,55.30
2024-02-19T06:22:15.255Z,55.60
2024-02-19T06:24:51.442Z,54.30
2024-02-19T06:27:27.420Z,55.10
2024-02-19T06:30:04.374Z,54.60
2024-02-19T06:32:40.382Z,54.60
2024-02-19T06:35:16.489Z,54.40
2024-02-19T06:37:52.457Z,54.40
2024-02-19T06:40:28.556Z,53.20
2024-02-19T06:43:04.802Z,53.00
2024-02-19T06:45:40.771Z,53.50
2024-02-19T06:48:17.055Z,53.70
2024-02-19T06:50:53.312Z,54.00
2024-02-19T06:53:30.519Z,54.20
2024-02-19T06:56:09.287Z,54.50
2024-02-19T06:58:45.305Z,53.50
2024-02-19T07:01:21.335Z,53.80
2024-02-19T07:03:57.749Z,52.70
2024-02-19T07:06:33.838Z,52.30
2024-02-19T07:09:09.886Z,52.30
2024-02-19T07:11:45.862Z,52.50
2024-02-19T07:14:21.845Z,52.50
2024-02-19T07:16:58.002Z,52.60
2024-02-19T07:19:34.191Z,52.50
2024-02-19T07:22:10.233Z,52.70
2024-02-19T07:24:47.823Z,51.90
2024-02-19T07:27:26.007Z,49.90
2024-02-19T07:30:01.983Z,49.90
2024-02-19T07:32:38.048Z,49.70
2024-02-19T07:35:14.559Z,49.90
2024-02-19T07:37:50.527Z,50.80
2024-02-19T07:40:26.629Z,50.20
2024-02-19T07:43:02.885Z,49.30
2024-02-19T07:45:38.867Z,48.90
2024-02-19T07:48:14.965Z,48.90
2024-02-19T07:50:51.011Z,48.00
2024-02-19T07:53:26.914Z,47.90
2024-02-19T07:56:07.168Z,47.40
2024-02-19T07:58:43.560Z,47.00
2024-02-19T08:01:19.591Z,46.80
2024-02-19T08:03:55.661Z,46.90
2024-02-19T08:06:31.653Z,45.70
2024-02-19T08:09:07.841Z,45.10
2024-02-19T08:11:43.899Z,45.20
2024-02-19T08:14:20.926Z,44.80
2024-02-19T08:16:57.271Z,44.30
2024-02-19T08:19:34.268Z,43.40
2024-02-19T08:22:10.340Z,43.00
2024-02-19T08:24:46.406Z,43.10
2024-02-19T08:27:22.500Z,43.30
2024-02-19T08:29:58.442Z,43.10
2024-02-19T08:32:34.359Z,42.90
2024-02-19T08:35:10.539Z,42.10
2024-02-19T08:37:46.520Z,41.90
2024-02-19T08:40:22.554Z,41.60
2024-02-19T08:42:58.607Z,41.70
2024-02-19T08:45:37.249Z,41.10
2024-02-19T08:48:13.814Z,40.60
2024-02-19T08:50:53.634Z,41.20
2024-02-19T08:53:29.756Z,40.90
2024-02-19T08:56:06.053Z,40.90
2024-02-19T08:58:42.344Z,40.90
2024-02-19T09:01:20.517Z,40.50
2024-02-19T09:03:56.714Z,40.20
2024-02-19T09:06:32.762Z,40.10
2024-02-19T09:09:09.342Z,40.20
2024-02-19T09:11:45.394Z,40.10
2024-02-19T09:14:21.985Z,39.70
2024-02-19T09:16:57.956Z,39.60
2024-02-19T09:19:34.037Z,39.40
2024-02-19T09:22:10.180Z,39.30
2024-02-19T09:24:48.840Z,39.30
2024-02-19T09:27:25.033Z,39.60
2024-02-19T09:30:01.217Z,39.50
2024-02-19T09:32:37.178Z,39.60
2024-02-19T09:35:13.270Z,39.40
2024-02-19T09:37:50.360Z,39.20
2024-02-19T09:40:33.411Z,39.00
2024-02-19T09:43:10.442Z,39.40
2024-02-19T09:45:46.535Z,39.00
2024-02-19T09:48:23.856Z,38.70
2024-02-19T09:51:01.697Z,38.80
2024-02-19T09:53:38.645Z,38.70
2024-02-19T09:56:18.533Z,39.00
2024-02-19T09:58:54.477Z,38.40
2024-02-19T10:01:30.733Z,38.10
2024-02-19T10:04:09.480Z,37.80
2024-02-19T10:06:46.760Z,38.00
2024-02-19T10:09:22.894Z,37.60
2024-02-19T10:11:59.287Z,38.10
2024-02-19T10:14:35.239Z,38.00
2024-02-19T10:17:12.747Z,38.00
2024-02-19T10:19:59.693Z,37.60
2024-02-19T10:22:35.748Z,37.90
2024-02-19T10:25:13.471Z,37.90
2024-02-19T10:27:49.899Z,37.70
2024-02-19T10:30:26.206Z,37.50
2024-02-19T10:33:02.530Z,37.80
2024-02-19T10:35:38.460Z,37.60
2024-02-19T10:38:15.368Z,37.30
2024-02-19T10:40:51.569Z,37.60
2024-02-19T10:43:27.572Z,37.80
2024-02-19T10:46:05.878Z,38.10
2024-02-19T10:48:42.196Z,37.50
2024-02-19T10:51:20.818Z,37.70
2024-02-19T10:54:03.078Z,37.30
2024-02-19T10:56:43.365Z,37.20
2024-02-19T10:59:19.545Z,37.30
2024-02-19T11:01:55.955Z,37.60
2024-02-19T11:04:35.086Z,37.70
2024-02-19T11:07:11.149Z,37.40
2024-02-19T11:09:47.138Z,37.60
2024-02-19T11:12:23.173Z,37.70
2024-02-19T11:14:59.123Z,37.40
2024-02-19T11:17:35.149Z,37.70
2024-02-19T11:20:11.615Z,37.40
2024-02-19T11:22:47.520Z,37.00
2024-02-19T11:25:25.012Z,36.90
2024-02-19T11:28:03.405Z,36.60
2024-02-19T11:30:39.874Z,36.50
2024-02-19T11:33:16.154Z,36.70
2024-02-19T11:35:58.033Z,37.00
2024-02-19T11:38:36.068Z,37.20
2024-02-19T11:41:12.409Z,37.20
2024-02-19T11:43:48.442Z,37.40
2024-02-19T11:46:24.884Z,37.20
2024-02-19T11:49:01.603Z,38.20
2024-02-19T11:51:41.147Z,37.40
2024-02-19T11:54:17.618Z,36.80
2024-02-19T11:56:54.056Z,37.00
2024-02-19T11:59:31.552Z,36.70
2024-02-19T12:02:10.234Z,36.20
2024-02-19T12:04:52.615Z,35.90
2024-02-19T12:07:30.385Z,35.70
2024-02-19T12:10:11.052Z,35.60
2024-02-19T12:12:47.075Z,35.30
2024-02-19T12:15:23.420Z,34.80
2024-02-19T12:17:59.430Z,34.80
2024-02-19T12:20:35.439Z,35.00
2024-02-19T12:23:11.407Z,35.30
2024-02-19T12:25:47.520Z,34.60
2024-02-19T12:28:23.466Z,34.50
2024-02-19T12:30:59.772Z,34.50
2024-02-19T12:33:39.299Z,34.40
2024-02-19T12:36:16.051Z,34.30
2024-02-19T12:38:53.995Z,34.10
2024-02-19T12:41:30.774Z,34.20
2024-02-19T12:44:06.904Z,33.90
2024-02-19T12:46:42.983Z,34.10
2024-02-19T12:49:19.111Z,33.60
2024-02-19T12:51:55.600Z,33.50
2024-02-19T12:54:31.768Z,32.60
2024-02-19T12:57:10.896Z,32.50
2024-02-19T12:59:46.927Z,32.50
2024-02-19T13:02:22.988Z,32.50
2024-02-19T13:04:59.325Z,32.10
2024-02-19T13:07:35.841Z,32.20
2024-02-19T13:10:11.961Z,31.90
2024-02-19T13:12:50.751Z,32.20
2024-02-19T13:15:26.790Z,32.20
2024-02-19T13:18:03.815Z,32.20
2024-02-19T13:20:44.832Z,32.50
2024-02-19T13:23:21.034Z,32.00
2024-02-19T13:25:56.953Z,31.90
2024-02-19T13:28:32.957Z,31.90
2024-02-19T13:31:09.278Z,32.00
2024-02-19T13:33:45.767Z,32.50
2024-02-19T13:36:21.749Z,32.10
2024-02-19T13:38:58.512Z,32.10
2024-02-19T13:41:34.445Z,32.20
2024-02-19T13:44:10.385Z,32.50
2024-02-19T13:46:47.003Z,32.60
2024-02-19T13:49:23.112Z,32.30
2024-02-19T13:51:59.084Z,32.10
2024-02-19T13:54:35.208Z,32.20
2024-02-19T13:57:11.872Z,32.60
2024-02-19T13:59:47.750Z,32.10
2024-02-19T14:02:24.004Z,32.20
2024-02-19T14:05:00.002Z,33.00
2024-02-19T14:07:36.019Z,32.60
2024-02-19T14:10:12.082Z,32.50
2024-02-19T14:12:48.069Z,32.90
2024-02-19T14:15:25.020Z,33.00
2024-02-19T14:18:00.989Z,32.80
2024-02-19T14:20:37.069Z,32.80
2024-02-19T14:23:13.728Z,32.80
2024-02-19T14:25:50.982Z,32.70
2024-02-19T14:28:27.035Z,32.90
2024-02-19T14:31:04.032Z,33.30
2024-02-19T14:33:40.052Z,33.40
2024-02-19T14:36:16.054Z,33.50
2024-02-19T14:38:53.217Z,32.80
2024-02-19T14:41:29.384Z,32.50
2024-02-19T14:44:05.449Z,32.60
2024-02-19T14:46:51.054Z,33.00
2024-02-19T14:49:30.842Z,32.80
2024-02-19T14:52:07.552Z,32.70
2024-02-19T14:54:43.780Z,32.80
2024-02-19T14:57:19.850Z,32.90
2024-02-19T14:59:55.806Z,32.70
2024-02-19T15:02:32.884Z,32.80
2024-02-19T15:05:09.858Z,32.60
2024-02-19T15:07:52.679Z,32.70
2024-02-19T15:10:29.716Z,32.60
2024-02-19T15:13:06.006Z,32.90
2024-02-19T15:15:42.406Z,33.00
2024-02-19T15:18:18.568Z,33.00
2024-02-19T15:20:54.916Z,33.20
2024-02-19T15:23:30.925Z,33.00
2024-02-19T15:26:11.005Z,32.80
2024-02-19T15:28:47.962Z,33.70
2024-02-19T15:31:24.170Z,33.80
2024-02-19T15:34:00.333Z,33.90
2024-02-19T15:36:36.570Z,33.70
2024-02-19T15:39:13.100Z,33.30
2024-02-19T15:41:49.627Z,33.10
2024-02-19T15:44:25.739Z,32.80
2024-02-19T15:47:02.369Z,32.70
2024-02-19T15:49:38.510Z,33.20
2024-02-19T15:52:17.567Z,33.20
2024-02-19T15:54:53.720Z,33.00
2024-02-19T15:57:29.953Z,33.20
2024-02-19T16:00:09.470Z,33.20
2024-02-19T16:02:45.428Z,33.10
2024-02-19T16:05:21.587Z,32.80
2024-02-19T16:07:57.629Z,32.80
2024-02-19T16:10:33.824Z,33.10
2024-02-19T16:13:09.873Z,33.00
2024-02-19T16:15:45.994Z,33.00
2024-02-19T16:18:22.007Z,32.90
2024-02-19T16:20:57.980Z,32.70
2024-02-19T16:23:34.417Z,32.60
2024-02-19T16:26:11.105Z,32.70
2024-02-19T16:28:47.873Z,32.70
2024-02-19T16:31:23.838Z,34.40
2024-02-19T16:34:00.012Z,35.20
2024-02-19T16:36:36.051Z,35.20
2024-02-19T16:39:12.041Z,36.20
2024-02-19T16:41:47.999Z,35.30
2024-02-19T16:44:24.574Z,34.90
2024-02-19T16:47:00.493Z,34.80
2024-02-19T16:49:37.362Z,35.10
2024-02-19T16:52:13.743Z,34.80
2024-02-19T16:54:49.742Z,35.10
2024-02-19T16:57:26.884Z,35.50
2024-02-19T17:00:04.629Z,35.30
2024-02-19T17:02:40.608Z,35.40
2024-02-19T17:05:16.918Z,36.00
2024-02-19T17:07:53.319Z,36.10
2024-02-19T17:10:29.450Z,36.40
2024-02-19T17:13:05.485Z,36.90
2024-02-19T17:15:42.391Z,38.20
2024-02-19T17:18:18.894Z,38.50
2024-02-19T17:20:55.051Z,38.70
2024-02-19T17:23:30.974Z,39.40
2024-02-19T17:26:07.962Z,39.30
2024-02-19T17:28:44.247Z,39.20
2024-02-19T17:31:20.662Z,39.70
2024-02-19T17:33:56.824Z,39.10
2024-02-19T17:36:33.720Z,40.00
2024-02-19T17:39:10.190Z,40.00
2024-02-19T17:41:46.841Z,40.60
2024-02-19T17:44:23.507Z,40.60
2024-02-19T17:46:59.879Z,40.90
2024-02-19T17:49:35.871Z,41.00
2024-02-19T17:52:11.953Z,40.80
2024-02-19T17:54:48.296Z,41.30
2024-02-19T17:57:24.540Z,41.00
2024-02-19T18:00:00.534Z,41.40
2024-02-19T18:02:36.813Z,41.40
2024-02-19T18:05:13.017Z,41.60
2024-02-19T18:07:49.197Z,41.60
2024-02-19T18:10:25.170Z,41.60
2024-02-19T18:13:01.301Z,41.60
2024-02-19T18:15:37.616Z,41.70
2024-02-19T18:18:13.639Z,42.00
2024-02-19T18:20:49.744Z,42.00
2024-02-19T18:23:30.033Z,41.80
2024-02-19T18:26:07.071Z,41.80
2024-02-19T18:28:43.181Z,41.70
2024-02-19T18:31:19.418Z,41.90
2024-02-19T18:33:55.598Z,41.70
2024-02-19T18:36:31.774Z,41.70
2024-02-19T18:39:07.936Z,41.40
2024-02-19T18:41:43.887Z,41.40
2024-02-19T18:44:19.889Z,41.50
2024-02-19T18:46:55.839Z,41.50
2024-02-19T18:49:37.173Z,41.40
2024-02-19T18:52:13.333Z,41.30
2024-02-19T18:54:49.287Z,41.30
2024-02-19T18:57:25.265Z,41.20
2024-02-19T19:00:01.233Z,41.40
2024-02-19T19:02:38.444Z,41.40
2024-02-19T19:05:14.734Z,41.30
2024-02-19T19:07:50.734Z,41.40
2024-02-19T19:10:27.261Z,41.60
2024-02-19T19:13:03.228Z,41.60
2024-02-19T19:15:44.207Z,41.40
2024-02-19T19:18:20.350Z,41.70
2024-02-19T19:20:56.340Z,42.00
2024-02-19T19:23:32.777Z,42.20
2024-02-19T19:26:08.719Z,42.10
2024-02-19T19:28:44.673Z,42.00
2024-02-19T19:31:20.862Z,42.10
2024-02-19T19:33:57.219Z,42.20
2024-02-19T19:36:33.308Z,41.80
2024-02-19T19:39:10.063Z,41.90
2024-02-19T19:41:47.882Z,42.00
2024-02-19T19:44:23.934Z,42.10
2024-02-19T19:46:59.870Z,42.20
2024-02-19T19:49:36.006Z,42.30
2024-02-19T19:52:13.776Z,42.30
2024-02-19T19:54:49.838Z,42.40
2024-02-19T19:57:28.432Z,42.40
2024-02-19T20:00:07.808Z,42.50
2024-02-19T20:02:45.898Z,42.30
2024-02-19T20:05:22.676Z,42.30
2024-02-19T20:07:58.836Z,42.20
2024-02-19T20:10:35.574Z,42.30
2024-02-19T20:13:11.575Z,42.60
2024-02-19T20:15:47.784Z,42.60
2024-02-19T20:18:29.301Z,42.80
2024-02-19T20:21:05.794Z,42.90
2024-02-19T20:23:43.241Z,42.70
2024-02-19T20:26:19.754Z,42.70
2024-02-19T20:28:55.704Z,42.60
2024-02-19T20:31:32.413Z,42.60
2024-02-19T20:34:08.482Z,43.40
2024-02-19T20:36:44.570Z,45.20
2024-02-19T20:39:20.583Z,46.90
2024-02-19T20:41:56.630Z,48.30
2024-02-19T20:44:35.506Z,49.60
2024-02-19T20:47:11.459Z,51.10
2024-02-19T20:49:48.144Z,53.20
2024-02-19T20:52:24.822Z,55.10
2024-02-19T20:55:00.839Z,57.50
2024-02-19T20:57:39.041Z,59.00
2024-02-19T21:00:15.643Z,60.40
2024-02-19T21:02:51.631Z,61.70
2024-02-19T21:05:27.667Z,63.10
2024-02-19T21:08:06.194Z,64.80
2024-02-19T21:10:43.955Z,65.90
2024-02-19T21:13:20.130Z,66.00
2024-02-19T21:15:57.505Z,66.30
2024-02-19T21:18:42.789Z,66.00
2024-02-19T21:21:30.332Z,66.00
2024-02-19T21:24:10.995Z,65.60
2024-02-19T21:26:46.980Z,65.30
2024-02-19T21:29:24.869Z,64.60
2024-02-19T21:32:00.827Z,64.40
2024-02-19T21:34:38.540Z,64.70
2024-02-19T21:37:15.088Z,64.10
2024-02-19T21:39:51.054Z,63.50
2024-02-19T21:42:30.044Z,63.00
2024-02-19T21:45:08.624Z,61.90
2024-02-19T21:47:45.750Z,61.30
2024-02-19T21:50:22.472Z,60.30
2024-02-19T21:52:58.811Z,60.00
2024-02-19T21:55:34.799Z,60.20
2024-02-19T21:58:10.851Z,59.20
2024-02-19T22:00:46.969Z,58.60
2024-02-19T22:03:24.094Z,58.90
2024-02-19T22:06:00.270Z,58.40
2024-02-19T22:08:36.214Z,58.70
2024-02-19T22:11:14.282Z,58.80
2024-02-19T22:13:50.789Z,58.50
2024-02-19T22:16:26.874Z,59.30
2024-02-19T22:19:02.952Z,59.10
2024-02-19T22:21:38.897Z,59.80
2024-02-19T22:24:14.981Z,60.40
2024-02-19T22:26:51.180Z,61.70
2024-02-19T22:29:27.494Z,62.10
2024-02-19T22:32:04.542Z,63.10
2024-02-19T22:34:45.740Z,62.40
2024-02-19T22:37:21.985Z,61.50
2024-02-19T22:39:58.177Z,61.90
2024-02-19T22:42:34.126Z,61.80
2024-02-19T22:45:10.067Z,61.90
2024-02-19T22:47:46.352Z,61.20
2024-02-19T22:50:22.332Z,61.30
2024-02-19T22:52:58.703Z,62.10
2024-02-19T22:55:34.911Z,63.50
2024-02-19T22:58:11.119Z,64.40
2024-02-19T23:00:48.787Z,66.90
2024-02-19T23:03:24.867Z,70.10
2024-02-19T23:06:00.887Z,73.50
2024-02-19T23:08:36.876Z,76.00
2024-02-19T23:11:12.877Z,76.60
2024-02-19T23:13:48.832Z,76.70
2024-02-19T23:16:25.083Z,76.30
2024-02-19T23:19:01.316Z,76.00
2024-02-19T23:21:37.809Z,75.70
2024-02-19T23:24:13.837Z,74.10
2024-02-19T23:26:49.868Z,72.50
2024-02-19T23:29:25.802Z,70.20
2024-02-19T23:32:01.733Z,70.50
2024-02-19T23:34:37.678Z,70.60
2024-02-19T23:37:13.745Z,71.30
2024-02-19T23:39:49.855Z,69.50
2024-02-19T23:42:27.097Z,69.50
2024-02-19T23:45:05.993Z,68.60
2024-02-19T23:47:42.726Z,67.30
2024-02-19T23:50:18.711Z,67.00
2024-02-19T23:52:54.707Z,66.50
2024-02-19T23:55:30.781Z,66.50
2024-02-19T23:58:06.810Z,65.70
